createdAt,value
2017-01-26T00:00:02.485Z,16.37
2017-01-26T00:01:11.470Z,16.22
2017-01-26T00:02:20.468Z,16.26
2017-01-26T00:03:29.465Z,16.34
2017-01-26T00:04:38.450Z,16.2
2017-01-26T00:05:47.437Z,16.17
2017-01-26T00:06:56.425Z,16.26
2017-01-26T00:08:05.402Z,16.18
2017-01-26T00:09:14.419Z,16.2
2017-01-26T00:10:23.405Z,16.15
2017-01-26T00:11:32.401Z,16.11
2017-01-26T00:12:41.383Z,15.97
2017-01-26T00:13:50.362Z,16.01
2017-01-26T00:14:59.354Z,16
2017-01-26T00:16:08.339Z,16.11
2017-01-26T00:17:17.331Z,16.03
2017-01-26T00:18:26.302Z,16
2017-01-26T00:19:35.282Z,15.99
2017-01-26T00:20:44.274Z,15.92
2017-01-26T00:21:53.259Z,15.97
2017-01-26T00:23:02.250Z,16.03
2017-01-26T00:24:11.234Z,16.01
2017-01-26T00:25:20.216Z,16.03
2017-01-26T00:26:29.206Z,15.97
2017-01-26T00:27:38.188Z,15.79
2017-01-26T00:28:47.170Z,15.86
2017-01-26T00:29:56.145Z,15.88
2017-01-26T00:31:05.130Z,15.99
2017-01-26T00:32:14.156Z,15.71
2017-01-26T00:33:23.147Z,15.74
2017-01-26T00:34:32.135Z,15.76
2017-01-26T00:35:41.134Z,15.69
2017-01-26T00:36:50.105Z,15.71
2017-01-26T00:37:59.136Z,15.78
2017-01-26T00:39:08.126Z,15.69
2017-01-26T00:40:17.106Z,15.7
2017-01-26T00:41:26.086Z,15.66
2017-01-26T00:42:35.066Z,15.67
2017-01-26T00:43:44.063Z,15.63
2017-01-26T00:44:53.078Z,15.64
2017-01-26T00:46:02.071Z,15.49
2017-01-26T00:47:11.056Z,15.55
2017-01-26T00:48:20.048Z,15.55
2017-01-26T00:49:29.046Z,15.42
2017-01-26T00:50:38.052Z,15.41
2017-01-26T00:51:47.044Z,15.53
2017-01-26T00:52:56.013Z,15.59
2017-01-26T00:54:05.015Z,15.41
2017-01-26T00:55:13.985Z,15.38
2017-01-26T00:56:22.976Z,15.49
2017-01-26T00:57:31.969Z,15.52
2017-01-26T00:58:40.953Z,15.51
2017-01-26T00:59:49.920Z,15.41
2017-01-26T01:00:58.907Z,15.42
2017-01-26T01:02:07.906Z,15.37
2017-01-26T01:03:16.886Z,15.45
2017-01-26T01:04:25.880Z,15.44
2017-01-26T01:05:34.861Z,15.24
2017-01-26T01:06:43.831Z,15.24
2017-01-26T01:07:52.826Z,15.23
2017-01-26T01:09:01.802Z,15.15
2017-01-26T01:10:10.802Z,15.27
2017-01-26T01:11:19.788Z,15.27
2017-01-26T01:12:28.770Z,15.28
2017-01-26T01:13:37.756Z,15.09
2017-01-26T01:14:46.757Z,15.11
2017-01-26T01:15:55.729Z,15.12
2017-01-26T01:17:04.716Z,15.08
2017-01-26T01:18:13.703Z,15.12
2017-01-26T01:19:22.682Z,15.04
2017-01-26T01:20:31.660Z,15.12
2017-01-26T01:21:40.658Z,15.08
2017-01-26T01:22:49.640Z,15.01
2017-01-26T01:23:58.632Z,15.01
2017-01-26T01:25:07.641Z,15.06
2017-01-26T01:26:16.619Z,15.13
2017-01-26T01:27:25.607Z,15.15
2017-01-26T01:28:34.595Z,15.27
2017-01-26T01:29:43.630Z,15.08
2017-01-26T01:30:52.615Z,15.18
2017-01-26T01:32:01.635Z,15.05
2017-01-26T01:33:10.620Z,15.11
2017-01-26T01:34:19.595Z,15.12
2017-01-26T01:35:28.582Z,15.08
2017-01-26T01:36:37.555Z,15.18
2017-01-26T01:37:46.547Z,15.04
2017-01-26T01:38:55.532Z,14.91
2017-01-26T01:40:04.520Z,14.91
2017-01-26T01:41:13.495Z,14.84
2017-01-26T01:42:22.479Z,14.96
2017-01-26T01:43:31.464Z,14.9
2017-01-26T01:44:40.445Z,14.8
2017-01-26T01:45:49.418Z,14.78
2017-01-26T01:46:58.400Z,14.79
2017-01-26T01:48:07.374Z,15.01
2017-01-26T01:49:16.393Z,14.94
2017-01-26T01:50:25.366Z,14.84
2017-01-26T01:51:34.348Z,14.82
2017-01-26T01:52:43.327Z,14.65
2017-01-26T01:53:52.318Z,14.67
2017-01-26T01:55:01.297Z,14.79
2017-01-26T01:56:10.302Z,14.65
2017-01-26T01:57:19.283Z,14.8
2017-01-26T01:58:28.262Z,14.8
2017-01-26T01:59:37.282Z,14.62
2017-01-26T02:00:46.259Z,14.75
2017-01-26T02:01:55.234Z,14.68
2017-01-26T02:03:04.245Z,14.75
2017-01-26T02:04:13.228Z,14.74
2017-01-26T02:05:22.217Z,14.68
2017-01-26T02:06:31.195Z,14.68
2017-01-26T02:07:40.190Z,14.68
2017-01-26T02:08:49.164Z,14.87
2017-01-26T02:09:58.149Z,14.87
2017-01-26T02:11:07.138Z,14.74
2017-01-26T02:12:16.121Z,14.71
2017-01-26T02:13:25.118Z,14.59
2017-01-26T02:14:34.114Z,14.71
2017-01-26T02:15:43.094Z,14.57
2017-01-26T02:16:52.085Z,14.68
2017-01-26T02:18:01.066Z,14.79
2017-01-26T02:19:10.053Z,14.67
2017-01-26T02:20:19.026Z,14.62
2017-01-26T02:21:28.012Z,14.68
2017-01-26T02:22:36.988Z,14.63
2017-01-26T02:23:45.975Z,14.6
2017-01-26T02:24:54.988Z,14.49
2017-01-26T02:26:03.967Z,14.39
2017-01-26T02:27:12.945Z,14.44
2017-01-26T02:28:21.931Z,14.42
2017-01-26T02:29:30.913Z,14.47
2017-01-26T02:30:39.902Z,14.62
2017-01-26T02:31:48.931Z,14.53
2017-01-26T02:32:58.382Z,14.44
2017-01-26T02:34:07.354Z,14.54
2017-01-26T02:35:16.356Z,14.59
2017-01-26T02:36:25.335Z,14.67
2017-01-26T02:37:34.328Z,14.7
2017-01-26T02:38:43.307Z,14.6
2017-01-26T02:39:58.530Z,14.6
2017-01-26T02:41:07.506Z,14.6
2017-01-26T02:42:16.503Z,14.54
2017-01-26T02:43:25.476Z,14.41
2017-01-26T02:44:34.499Z,14.32
2017-01-26T02:45:43.477Z,14.37
2017-01-26T02:46:52.463Z,14.39
2017-01-26T02:48:01.455Z,14.32
2017-01-26T02:49:10.480Z,14.32
2017-01-26T02:50:19.462Z,14.19
2017-01-26T02:51:28.444Z,14.13
2017-01-26T02:52:37.424Z,14.16
2017-01-26T02:53:46.411Z,14.06
2017-01-26T02:54:55.431Z,14.04
2017-01-26T02:56:04.418Z,14.14
2017-01-26T02:57:13.418Z,14.05
2017-01-26T02:58:22.408Z,14.1
2017-01-26T02:59:31.390Z,14.09
2017-01-26T03:00:40.806Z,14.16
2017-01-26T03:01:49.783Z,14.17
2017-01-26T03:02:58.755Z,14.09
2017-01-26T03:04:07.728Z,14.13
2017-01-26T03:05:16.728Z,14.12
2017-01-26T03:06:25.709Z,14.17
2017-01-26T03:07:34.855Z,14.12
2017-01-26T03:08:44.028Z,14.02
2017-01-26T03:09:53.012Z,14.02
2017-01-26T03:11:01.991Z,14.12
2017-01-26T03:12:10.986Z,14.09
2017-01-26T03:13:19.960Z,14.14
2017-01-26T03:14:28.949Z,14.06
2017-01-26T03:15:37.925Z,13.98
2017-01-26T03:16:46.899Z,13.97
2017-01-26T03:17:55.981Z,14.13
2017-01-26T03:19:04.973Z,14.01
2017-01-26T03:20:13.952Z,14.06
2017-01-26T03:21:22.924Z,14.1
2017-01-26T03:22:31.917Z,14.1
2017-01-26T03:23:40.902Z,14.02
2017-01-26T03:24:49.890Z,13.98
2017-01-26T03:25:58.874Z,13.84
2017-01-26T03:27:07.848Z,13.99
2017-01-26T03:28:16.839Z,13.81
2017-01-26T03:29:25.820Z,13.89
2017-01-26T03:30:34.807Z,13.79
2017-01-26T03:31:43.775Z,13.92
2017-01-26T03:32:52.762Z,14.02
2017-01-26T03:34:01.740Z,14.09
2017-01-26T03:35:10.719Z,13.97
2017-01-26T03:36:19.747Z,13.79
2017-01-26T03:37:28.727Z,13.74
2017-01-26T03:38:37.717Z,13.84
2017-01-26T03:39:46.703Z,13.79
2017-01-26T03:40:55.676Z,13.84
2017-01-26T03:42:04.706Z,13.8
2017-01-26T03:43:13.684Z,13.81
2017-01-26T03:44:22.669Z,13.76
2017-01-26T03:45:31.652Z,13.87
2017-01-26T03:46:40.626Z,13.68
2017-01-26T03:47:49.616Z,13.72
2017-01-26T03:48:58.600Z,13.74
2017-01-26T03:50:07.585Z,13.72
2017-01-26T03:51:16.561Z,13.58
2017-01-26T03:52:25.549Z,13.64
2017-01-26T03:53:34.533Z,13.69
2017-01-26T03:54:43.513Z,13.79
2017-01-26T03:55:52.501Z,13.69
2017-01-26T03:57:01.478Z,13.74
2017-01-26T03:58:10.473Z,13.79
2017-01-26T03:59:19.442Z,13.86
2017-01-26T04:00:28.431Z,13.8
2017-01-26T04:01:37.410Z,13.69
2017-01-26T04:02:46.389Z,13.66
2017-01-26T04:03:55.370Z,13.66
2017-01-26T04:05:04.363Z,13.66
2017-01-26T04:06:13.342Z,13.73
2017-01-26T04:07:22.324Z,13.74
2017-01-26T04:08:31.308Z,13.65
2017-01-26T04:09:40.291Z,13.64
2017-01-26T04:10:49.683Z,13.76
2017-01-26T04:11:58.668Z,13.72
2017-01-26T04:13:07.679Z,13.59
2017-01-26T04:14:16.673Z,13.59
2017-01-26T04:15:25.657Z,13.61
2017-01-26T04:16:34.644Z,13.58
2017-01-26T04:17:43.630Z,13.51
2017-01-26T04:18:52.621Z,13.55
2017-01-26T04:20:01.588Z,13.58
2017-01-26T04:21:10.576Z,13.54
2017-01-26T04:22:19.555Z,13.49
2017-01-26T04:23:28.534Z,13.54
2017-01-26T04:24:37.509Z,13.5
2017-01-26T04:25:46.504Z,13.5
2017-01-26T04:26:55.495Z,13.46
2017-01-26T04:28:04.491Z,13.39
2017-01-26T04:29:13.479Z,13.44
2017-01-26T04:30:22.460Z,13.39
2017-01-26T04:31:31.439Z,13.47
2017-01-26T04:32:40.477Z,13.46
2017-01-26T04:33:49.467Z,13.4
2017-01-26T04:34:58.452Z,13.43
2017-01-26T04:36:07.445Z,13.4
2017-01-26T04:37:16.487Z,13.39
2017-01-26T04:38:25.473Z,13.4
2017-01-26T04:39:34.463Z,13.44
2017-01-26T04:40:43.448Z,13.3
2017-01-26T04:41:52.416Z,13.41
2017-01-26T04:43:01.408Z,13.41
2017-01-26T04:44:10.383Z,13.32
2017-01-26T04:45:19.350Z,13.3
2017-01-26T04:46:28.333Z,13.39
2017-01-26T04:47:37.326Z,13.44
2017-01-26T04:48:46.329Z,13.41
2017-01-26T04:49:55.313Z,13.4
2017-01-26T04:51:04.279Z,13.3
2017-01-26T04:52:13.261Z,13.44
2017-01-26T04:53:22.251Z,13.39
2017-01-26T04:54:31.230Z,13.43
2017-01-26T04:55:40.207Z,13.3
2017-01-26T04:56:49.195Z,13.28
2017-01-26T04:57:58.198Z,13.32
2017-01-26T04:59:07.170Z,13.31
2017-01-26T05:00:16.160Z,13.36
2017-01-26T05:01:25.140Z,13.3
2017-01-26T05:02:34.127Z,13.41
2017-01-26T05:03:43.123Z,13.36
2017-01-26T05:04:52.101Z,13.39
2017-01-26T05:06:01.096Z,13.32
2017-01-26T05:07:10.125Z,13.28
2017-01-26T05:08:19.162Z,13.27
2017-01-26T05:09:28.148Z,13.28
2017-01-26T05:10:37.122Z,13.31
2017-01-26T05:11:46.104Z,13.3
2017-01-26T05:12:55.085Z,13.25
2017-01-26T05:14:04.071Z,13.3
2017-01-26T05:15:13.061Z,13.24
2017-01-26T05:16:22.045Z,13.32
2017-01-26T05:17:31.033Z,13.32
2017-01-26T05:18:40.012Z,13.32
2017-01-26T05:19:48.997Z,13.31
2017-01-26T05:20:57.994Z,13.32
2017-01-26T05:22:06.984Z,13.32
2017-01-26T05:23:15.972Z,13.39
2017-01-26T05:24:24.945Z,13.31
2017-01-26T05:25:33.933Z,13.36
2017-01-26T05:26:42.918Z,13.3
2017-01-26T05:27:51.900Z,13.37
2017-01-26T05:29:00.884Z,13.27
2017-01-26T05:30:09.875Z,13.3
2017-01-26T05:31:18.847Z,13.3
2017-01-26T05:32:27.830Z,13.27
2017-01-26T05:33:36.817Z,13.39
2017-01-26T05:34:45.896Z,13.2
2017-01-26T05:35:54.942Z,13.25
2017-01-26T05:37:03.912Z,13.28
2017-01-26T05:38:13.321Z,13.25
2017-01-26T05:39:22.309Z,13.23
2017-01-26T05:40:31.296Z,13.27
2017-01-26T05:41:40.286Z,13.3
2017-01-26T05:42:49.330Z,13.27
2017-01-26T05:43:58.317Z,13.3
2017-01-26T05:45:07.296Z,13.3
2017-01-26T05:46:16.269Z,13.28
2017-01-26T05:47:25.258Z,13.25
2017-01-26T05:48:34.230Z,13.24
2017-01-26T05:49:43.228Z,13.15
2017-01-26T05:50:52.207Z,13.18
2017-01-26T05:52:01.173Z,13.27
2017-01-26T05:53:10.161Z,13.21
2017-01-26T05:54:19.158Z,13.25
2017-01-26T05:55:28.138Z,13.18
2017-01-26T05:56:37.126Z,13.17
2017-01-26T05:57:46.108Z,13.09
2017-01-26T05:58:55.087Z,13.12
2017-01-26T06:00:04.072Z,13.21
2017-01-26T06:01:13.066Z,13.23
2017-01-26T06:02:22.032Z,13.3
2017-01-26T06:03:31.026Z,13.21
2017-01-26T06:04:39.992Z,13.17
2017-01-26T06:05:48.978Z,13.24
2017-01-26T06:06:57.984Z,13.13
2017-01-26T06:08:06.973Z,13.09
2017-01-26T06:09:17.055Z,13.39
2017-01-26T06:10:26.072Z,13.87
2017-01-26T06:11:35.047Z,14.22
2017-01-26T06:12:44.038Z,14.42
2017-01-26T06:13:53.020Z,14.62
2017-01-26T06:15:02.042Z,14.63
2017-01-26T06:16:11.020Z,14.86
2017-01-26T06:17:20.011Z,14.87
2017-01-26T06:18:29.005Z,14.8
2017-01-26T06:19:37.995Z,14.9
2017-01-26T06:20:46.978Z,15.05
2017-01-26T06:21:55.969Z,15
2017-01-26T06:23:04.966Z,15.04
2017-01-26T06:24:13.940Z,15.13
2017-01-26T06:25:22.927Z,15.18
2017-01-26T06:26:31.907Z,15.23
2017-01-26T06:27:40.891Z,15.36
2017-01-26T06:28:49.885Z,15.42
2017-01-26T06:29:58.866Z,15.45
2017-01-26T06:31:07.849Z,15.53
2017-01-26T06:32:16.830Z,15.45
2017-01-26T06:33:25.827Z,15.55
2017-01-26T06:34:34.805Z,15.6
2017-01-26T06:35:43.817Z,15.64
2017-01-26T06:36:52.806Z,15.7
2017-01-26T06:38:01.796Z,15.63
2017-01-26T06:39:10.768Z,15.81
2017-01-26T06:40:19.812Z,15.82
2017-01-26T06:41:28.788Z,15.91
2017-01-26T06:42:37.768Z,15.86
2017-01-26T06:43:46.751Z,15.97
2017-01-26T06:44:55.736Z,16
2017-01-26T06:46:04.719Z,15.97
2017-01-26T06:47:13.708Z,16
2017-01-26T06:48:22.681Z,16.1
2017-01-26T06:49:31.664Z,16.06
2017-01-26T06:50:40.648Z,16.1
2017-01-26T06:51:49.636Z,16.1
2017-01-26T06:52:58.607Z,16.11
2017-01-26T06:54:07.597Z,16.1
2017-01-26T06:55:16.582Z,16.23
2017-01-26T06:56:25.567Z,16.22
2017-01-26T06:57:34.555Z,16.2
2017-01-26T06:58:43.556Z,16.25
2017-01-26T06:59:52.527Z,16.22
2017-01-26T07:01:01.510Z,16.35
2017-01-26T07:02:10.492Z,16.27
2017-01-26T07:03:19.476Z,16.35
2017-01-26T07:04:28.466Z,16.34
2017-01-26T07:05:37.459Z,16.29
2017-01-26T07:06:46.439Z,16.42
2017-01-26T07:07:55.430Z,16.48
2017-01-26T07:09:04.411Z,16.34
2017-01-26T07:10:13.406Z,16.41
2017-01-26T07:11:22.385Z,16.42
2017-01-26T07:12:31.380Z,16.47
2017-01-26T07:13:40.349Z,16.59
2017-01-26T07:14:49.365Z,16.56
2017-01-26T07:15:58.350Z,16.6
2017-01-26T07:17:07.339Z,16.63
2017-01-26T07:18:16.367Z,16.71
2017-01-26T07:19:25.408Z,16.69
2017-01-26T07:20:34.388Z,16.69
2017-01-26T07:21:43.371Z,16.82
2017-01-26T07:22:52.361Z,16.74
2017-01-26T07:24:01.344Z,16.81
2017-01-26T07:25:10.327Z,16.82
2017-01-26T07:26:19.321Z,16.81
2017-01-26T07:27:28.306Z,16.82
2017-01-26T07:28:37.295Z,16.87
2017-01-26T07:29:46.378Z,16.93
2017-01-26T07:30:55.392Z,16.92
2017-01-26T07:32:04.887Z,16.95
2017-01-26T07:33:13.879Z,17.06
2017-01-26T07:34:22.850Z,17.08
2017-01-26T07:35:31.838Z,17
2017-01-26T07:36:40.819Z,17.11
2017-01-26T07:37:49.891Z,17.18
2017-01-26T07:38:58.866Z,17.1
2017-01-26T07:40:07.858Z,17.2
2017-01-26T07:41:16.840Z,17.24
2017-01-26T07:42:25.824Z,17.28
2017-01-26T07:43:34.816Z,17.21
2017-01-26T07:44:43.831Z,17.33
2017-01-26T07:45:52.813Z,17.4
2017-01-26T07:47:01.832Z,17.44
2017-01-26T07:48:10.814Z,17.44
2017-01-26T07:49:19.795Z,17.4
2017-01-26T07:50:28.784Z,17.38
2017-01-26T07:51:37.786Z,17.57
2017-01-26T07:52:46.762Z,17.85
2017-01-26T07:53:55.776Z,17.88
2017-01-26T07:55:04.746Z,17.95
2017-01-26T07:56:13.749Z,18.19
2017-01-26T07:57:22.738Z,18.14
2017-01-26T07:58:31.724Z,18.25
2017-01-26T07:59:40.709Z,18.31
2017-01-26T08:00:49.708Z,18.34
2017-01-26T08:01:58.682Z,18.31
2017-01-26T08:03:07.664Z,18.34
2017-01-26T08:04:16.663Z,18.4
2017-01-26T08:05:25.658Z,18.43
2017-01-26T08:06:34.637Z,18.44
2017-01-26T08:07:43.635Z,18.44
2017-01-26T08:08:52.607Z,18.65
2017-01-26T08:10:01.599Z,18.57
2017-01-26T08:11:10.589Z,18.61
2017-01-26T08:12:19.570Z,18.74
2017-01-26T08:13:28.548Z,18.71
2017-01-26T08:14:37.523Z,18.9
2017-01-26T08:15:46.531Z,19.18
2017-01-26T08:16:55.512Z,19.17
2017-01-26T08:18:04.507Z,19.25
2017-01-26T08:19:13.498Z,19.32
2017-01-26T08:20:22.889Z,19.09
2017-01-26T08:21:31.886Z,19.05
2017-01-26T08:22:41.288Z,18.9
2017-01-26T08:23:50.271Z,18.83
2017-01-26T08:24:59.665Z,18.79
2017-01-26T08:26:08.656Z,18.74
2017-01-26T08:27:17.643Z,18.8
2017-01-26T08:28:26.623Z,18.68
2017-01-26T08:29:35.620Z,18.8
2017-01-26T08:30:44.609Z,18.72
2017-01-26T08:31:53.637Z,18.71
2017-01-26T08:33:02.624Z,18.72
2017-01-26T08:34:11.610Z,18.69
2017-01-26T08:35:20.592Z,18.8
2017-01-26T08:36:29.564Z,18.69
2017-01-26T08:37:38.576Z,18.68
2017-01-26T08:38:47.565Z,18.74
2017-01-26T08:39:56.549Z,18.81
2017-01-26T08:41:05.539Z,18.8
2017-01-26T08:42:14.523Z,18.72
2017-01-26T08:43:23.498Z,18.77
2017-01-26T08:44:32.493Z,18.77
2017-01-26T08:45:41.475Z,18.72
2017-01-26T08:46:50.470Z,18.77
2017-01-26T08:47:59.452Z,18.74
2017-01-26T08:49:08.447Z,18.81
2017-01-26T08:50:17.431Z,18.95
2017-01-26T08:51:26.422Z,18.94
2017-01-26T08:52:35.415Z,18.97
2017-01-26T08:53:44.402Z,18.89
2017-01-26T08:54:53.391Z,18.9
2017-01-26T08:56:02.374Z,18.94
2017-01-26T08:57:11.361Z,18.87
2017-01-26T08:58:20.349Z,18.89
2017-01-26T08:59:29.336Z,18.86
2017-01-26T09:00:38.341Z,18.89
2017-01-26T09:01:47.322Z,18.89
2017-01-26T09:02:56.320Z,18.87
2017-01-26T09:04:05.306Z,18.95
2017-01-26T09:05:14.295Z,18.94
2017-01-26T09:06:23.287Z,18.95
2017-01-26T09:07:32.279Z,18.94
2017-01-26T09:08:41.282Z,18.95
2017-01-26T09:09:50.273Z,18.91
2017-01-26T09:10:59.261Z,18.97
2017-01-26T09:12:08.388Z,18.95
2017-01-26T09:13:17.413Z,19.07
2017-01-26T09:14:29.158Z,19.07
2017-01-26T09:15:38.174Z,19.05
2017-01-26T09:16:47.171Z,19.17
2017-01-26T09:17:56.149Z,19.17
2017-01-26T09:19:05.133Z,19.06
2017-01-26T09:20:14.132Z,19.2
2017-01-26T09:21:23.115Z,19.12
2017-01-26T09:22:32.110Z,19.17
2017-01-26T09:23:41.087Z,19.09
2017-01-26T09:24:50.085Z,19.2
2017-01-26T09:25:59.057Z,19.21
2017-01-26T09:27:08.048Z,19.24
2017-01-26T09:28:17.041Z,19.24
2017-01-26T09:29:26.033Z,19.17
2017-01-26T09:30:35.015Z,19.22
2017-01-26T09:31:43.984Z,19.21
2017-01-26T09:32:52.968Z,19.12
2017-01-26T09:34:01.994Z,19.22
2017-01-26T09:35:11.004Z,19.24
2017-01-26T09:36:19.982Z,19.21
2017-01-26T09:37:28.976Z,19.25
2017-01-26T09:38:37.955Z,19.27
2017-01-26T09:39:46.942Z,19.22
2017-01-26T09:40:55.956Z,19.24
2017-01-26T09:42:04.953Z,19.35
2017-01-26T09:43:13.941Z,19.3
2017-01-26T09:44:22.947Z,19.28
2017-01-26T09:45:31.916Z,19.24
2017-01-26T09:46:40.905Z,19.21
2017-01-26T09:47:49.901Z,19.24
2017-01-26T09:48:58.891Z,19.22
2017-01-26T09:50:07.879Z,19.22
2017-01-26T09:51:16.877Z,19.24
2017-01-26T09:52:25.854Z,19.25
2017-01-26T09:53:34.867Z,19.18
2017-01-26T09:54:43.858Z,19.3
2017-01-26T09:55:52.846Z,19.21
2017-01-26T09:57:01.825Z,19.22
2017-01-26T09:58:10.817Z,19.21
2017-01-26T09:59:19.806Z,19.22
2017-01-26T10:00:28.825Z,19.39
2017-01-26T10:01:37.835Z,19.45
2017-01-26T10:02:46.824Z,19.46
2017-01-26T10:03:55.871Z,19.43
2017-01-26T10:05:04.861Z,19.45
2017-01-26T10:06:13.858Z,19.51
2017-01-26T10:07:22.864Z,19.61
2017-01-26T10:08:31.868Z,19.57
2017-01-26T10:09:40.887Z,19.51
2017-01-26T10:10:49.882Z,19.5
2017-01-26T10:11:58.874Z,19.45
2017-01-26T10:13:07.857Z,19.46
2017-01-26T10:14:16.842Z,19.35
2017-01-26T10:15:25.826Z,19.4
2017-01-26T10:16:34.824Z,19.46
2017-01-26T10:17:43.819Z,19.47
2017-01-26T10:18:52.797Z,19.46
2017-01-26T10:20:01.802Z,19.51
2017-01-26T10:21:10.792Z,19.47
2017-01-26T10:22:19.787Z,19.45
2017-01-26T10:23:28.780Z,19.45
2017-01-26T10:24:37.775Z,19.45
2017-01-26T10:25:46.788Z,19.42
2017-01-26T10:26:55.771Z,19.47
2017-01-26T10:28:04.760Z,19.5
2017-01-26T10:29:13.747Z,19.43
2017-01-26T10:30:22.749Z,19.43
2017-01-26T10:31:31.727Z,19.43
2017-01-26T10:32:40.708Z,19.47
2017-01-26T10:33:49.681Z,19.42
2017-01-26T10:34:58.707Z,19.45
2017-01-26T10:36:07.699Z,19.45
2017-01-26T10:37:16.693Z,19.43
2017-01-26T10:38:25.678Z,19.39
2017-01-26T10:39:34.676Z,19.42
2017-01-26T10:40:43.656Z,19.36
2017-01-26T10:41:52.639Z,19.36
2017-01-26T10:43:01.621Z,19.37
2017-01-26T10:44:10.618Z,19.3
2017-01-26T10:45:19.635Z,19.3
2017-01-26T10:46:29.035Z,19.32
2017-01-26T10:47:38.030Z,19.32
2017-01-26T10:48:47.022Z,19.45
2017-01-26T10:49:56.016Z,19.46
2017-01-26T10:51:05.004Z,19.51
2017-01-26T10:52:13.983Z,19.47
2017-01-26T10:53:22.978Z,19.57
2017-01-26T10:54:31.976Z,19.51
2017-01-26T10:55:40.957Z,19.43
2017-01-26T10:56:49.959Z,19.4
2017-01-26T10:57:58.935Z,19.42
2017-01-26T10:59:07.923Z,19.43
2017-01-26T11:00:16.922Z,19.37
2017-01-26T11:01:25.922Z,19.37
2017-01-26T11:02:34.927Z,19.28
2017-01-26T11:03:43.912Z,19.24
2017-01-26T11:04:52.897Z,19.4
2017-01-26T11:06:01.889Z,19.24
2017-01-26T11:07:11.034Z,19.28
2017-01-26T11:08:20.031Z,19.35
2017-01-26T11:09:29.018Z,19.33
2017-01-26T11:10:38.000Z,19.32
2017-01-26T11:11:46.982Z,19.3
2017-01-26T11:12:55.975Z,19.27
2017-01-26T11:14:04.963Z,19.32
2017-01-26T11:15:13.945Z,19.33
2017-01-26T11:16:22.914Z,19.35
2017-01-26T11:17:31.926Z,19.32
2017-01-26T11:18:40.926Z,19.27
2017-01-26T11:19:49.922Z,19.28
2017-01-26T11:20:58.906Z,19.39
2017-01-26T11:22:07.880Z,19.37
2017-01-26T11:23:16.894Z,19.35
2017-01-26T11:24:25.880Z,19.32
2017-01-26T11:25:34.866Z,19.37
2017-01-26T11:26:43.845Z,19.28
2017-01-26T11:27:52.837Z,19.28
2017-01-26T11:29:01.824Z,19.28
2017-01-26T11:30:10.799Z,19.32
2017-01-26T11:31:19.786Z,19.22
2017-01-26T11:32:28.785Z,19.28
2017-01-26T11:33:37.762Z,19.35
2017-01-26T11:34:46.758Z,19.35
2017-01-26T11:35:55.738Z,19.28
2017-01-26T11:37:04.727Z,19.37
2017-01-26T11:38:14.094Z,19.35
2017-01-26T11:39:52.974Z,19.33
2017-01-26T11:41:01.944Z,19.37
2017-01-26T11:42:10.931Z,19.37
2017-01-26T11:43:19.912Z,19.37
2017-01-26T11:44:28.893Z,19.45
2017-01-26T11:45:37.884Z,19.43
2017-01-26T11:46:46.876Z,19.51
2017-01-26T11:47:55.852Z,19.45
2017-01-26T11:49:04.848Z,19.4
2017-01-26T11:50:13.830Z,19.4
2017-01-26T11:51:22.821Z,19.36
2017-01-26T11:52:31.844Z,19.33
2017-01-26T11:53:40.839Z,19.37
2017-01-26T11:54:49.827Z,19.36
2017-01-26T11:55:58.816Z,19.21
2017-01-26T11:57:07.805Z,19.21
2017-01-26T11:58:16.786Z,19.18
2017-01-26T11:59:25.775Z,19.07
2017-01-26T12:00:35.390Z,19.02
